createdAt,value
2022-10-08T00:00:24.614Z,2.10
2022-10-08T00:01:24.980Z,2.10
2022-10-08T00:02:25.196Z,2.00
2022-10-08T00:03:25.443Z,2.20
2022-10-08T00:04:25.729Z,2.40
2022-10-08T00:05:25.983Z,2.10
2022-10-08T00:06:26.224Z,2.40
2022-10-08T00:07:26.470Z,2.20
2022-10-08T00:08:26.704Z,2.00
2022-10-08T00:09:26.945Z,1.90
2022-10-08T00:10:27.194Z,2.20
2022-10-08T00:11:27.441Z,2.10
2022-10-08T00:12:27.667Z,2.20
2022-10-08T00:13:27.928Z,2.20
2022-10-08T00:14:28.169Z,2.10
2022-10-08T00:15:28.420Z,2.20
2022-10-08T00:16:28.726Z,2.00
2022-10-08T00:17:28.969Z,2.20
2022-10-08T00:18:29.219Z,2.10
2022-10-08T00:19:29.482Z,2.20
2022-10-08T00:20:29.728Z,2.10
2022-10-08T00:21:30.010Z,2.00
2022-10-08T00:22:30.267Z,2.10
2022-10-08T00:23:30.503Z,2.00
2022-10-08T00:24:30.760Z,2.20
2022-10-08T00:25:31.010Z,2.00
2022-10-08T00:26:31.264Z,2.20
2022-10-08T00:27:31.501Z,2.20
2022-10-08T00:28:31.807Z,2.10
2022-10-08T00:29:32.062Z,2.40
2022-10-08T00:30:32.319Z,2.00
2022-10-08T00:31:32.628Z,2.20
2022-10-08T00:32:32.853Z,2.30
2022-10-08T00:33:33.096Z,2.30
2022-10-08T00:34:33.333Z,2.10
2022-10-08T00:35:33.583Z,2.10
2022-10-08T00:36:33.845Z,2.20
2022-10-08T00:37:34.084Z,2.10
2022-10-08T00:38:34.354Z,2.50
2022-10-08T00:39:34.599Z,2.20
2022-10-08T00:40:35.825Z,2.10
2022-10-08T00:41:35.134Z,2.10
2022-10-08T00:42:35.368Z,1.90
2022-10-08T00:43:35.616Z,2.20
2022-10-08T00:44:35.856Z,2.20
2022-10-08T00:45:36.177Z,2.20
2022-10-08T00:46:36.402Z,2.00
2022-10-08T00:47:36.647Z,2.10
2022-10-08T00:48:36.897Z,2.30
2022-10-08T00:49:37.159Z,2.30
2022-10-08T00:50:37.448Z,2.30
2022-10-08T00:51:37.691Z,2.40
2022-10-08T00:52:37.939Z,2.10
2022-10-08T00:53:38.184Z,2.40
2022-10-08T00:54:38.440Z,2.20
2022-10-08T00:55:43.132Z,2.40
2022-10-08T00:56:39.910Z,2.50
2022-10-08T00:57:39.223Z,1.80
2022-10-08T00:58:39.480Z,2.40
2022-10-08T00:59:39.861Z,2.00
2022-10-08T01:00:40.116Z,2.40
2022-10-08T01:01:40.435Z,2.50
2022-10-08T01:02:40.658Z,2.10
2022-10-08T01:03:40.902Z,2.00
2022-10-08T01:04:41.142Z,2.10
2022-10-08T01:05:41.403Z,2.00
2022-10-08T01:06:41.672Z,2.10
2022-10-08T01:07:41.911Z,2.20
2022-10-08T01:08:42.153Z,2.00
2022-10-08T01:09:43.333Z,2.00
2022-10-08T01:10:42.633Z,2.00
2022-10-08T01:11:42.902Z,2.30
2022-10-08T01:12:43.148Z,1.90
2022-10-08T01:13:43.391Z,2.30
2022-10-08T01:14:43.632Z,1.90
2022-10-08T01:15:43.875Z,1.80
2022-10-08T01:16:44.167Z,2.00
2022-10-08T01:17:44.405Z,2.20
2022-10-08T01:18:44.647Z,2.30
2022-10-08T01:19:44.897Z,2.00
2022-10-08T01:20:45.138Z,2.20
2022-10-08T01:21:45.397Z,2.10
2022-10-08T01:22:45.903Z,1.90
2022-10-08T01:23:45.907Z,2.00
2022-10-08T01:24:46.148Z,2.00
2022-10-08T01:25:46.391Z,2.10
2022-10-08T01:26:46.649Z,2.10
2022-10-08T01:27:46.889Z,2.00
2022-10-08T01:28:47.218Z,2.00
2022-10-08T01:29:47.432Z,2.10
2022-10-08T01:30:47.685Z,2.10
2022-10-08T01:31:47.945Z,2.30
2022-10-08T01:32:48.819Z,2.00
2022-10-08T01:33:48.540Z,1.90
2022-10-08T01:34:48.781Z,2.10
2022-10-08T01:35:49.022Z,2.10
2022-10-08T01:36:49.275Z,2.10
2022-10-08T01:37:49.512Z,2.10
2022-10-08T01:38:49.752Z,2.20
2022-10-08T01:39:50.094Z,2.20
2022-10-08T01:40:50.294Z,1.90
2022-10-08T01:41:50.544Z,2.10
2022-10-08T01:42:50.787Z,2.10
2022-10-08T01:43:51.014Z,1.90
2022-10-08T01:44:51.283Z,2.10
2022-10-08T01:45:51.594Z,1.70
2022-10-08T01:46:51.827Z,2.20
2022-10-08T01:47:52.065Z,1.80
2022-10-08T01:48:52.331Z,1.90
2022-10-08T01:49:52.573Z,2.00
2022-10-08T01:50:52.829Z,2.00
2022-10-08T01:51:53.083Z,1.90
2022-10-08T01:52:53.319Z,2.00
2022-10-08T01:53:53.557Z,1.70
2022-10-08T01:54:53.808Z,2.00
2022-10-08T01:55:54.042Z,1.90
2022-10-08T01:56:54.297Z,2.00
2022-10-08T01:57:54.547Z,1.80
2022-10-08T01:58:54.909Z,2.00
2022-10-08T01:59:55.150Z,2.10
2022-10-08T02:00:55.458Z,1.80
2022-10-08T02:01:55.717Z,2.30
2022-10-08T02:02:55.950Z,2.00
2022-10-08T02:03:56.191Z,1.90
2022-10-08T02:04:56.440Z,1.90
2022-10-08T02:05:56.682Z,2.00
2022-10-08T02:06:56.922Z,1.90
2022-10-08T02:07:57.200Z,1.90
2022-10-08T02:08:57.452Z,2.00
2022-10-08T02:09:57.684Z,2.00
2022-10-08T02:10:57.940Z,1.90
2022-10-08T02:11:58.193Z,2.00
2022-10-08T02:12:58.433Z,2.10
2022-10-08T02:13:58.683Z,1.80
2022-10-08T02:14:58.937Z,1.90
2022-10-08T02:15:59.169Z,2.00
2022-10-08T02:16:59.415Z,2.20
2022-10-08T02:17:59.742Z,1.50
2022-10-08T02:18:59.945Z,1.90
2022-10-08T02:20:00.196Z,1.80
2022-10-08T02:21:00.443Z,1.90
2022-10-08T02:22:00.686Z,1.90
2022-10-08T02:23:00.947Z,1.80
2022-10-08T02:24:01.177Z,1.90
2022-10-08T02:25:01.426Z,1.80
2022-10-08T02:26:01.678Z,1.90
2022-10-08T02:27:02.847Z,1.90
2022-10-08T02:28:02.164Z,2.10
2022-10-08T02:29:02.397Z,1.90
2022-10-08T02:30:02.663Z,2.00
2022-10-08T02:31:02.899Z,2.10
2022-10-08T02:32:03.236Z,1.90
2022-10-08T02:33:03.463Z,1.80
2022-10-08T02:34:03.709Z,1.90
2022-10-08T02:35:03.949Z,1.90
2022-10-08T02:36:04.189Z,1.90
2022-10-08T02:37:04.512Z,1.90
2022-10-08T02:38:04.730Z,1.90
2022-10-08T02:39:04.974Z,1.80
2022-10-08T02:40:05.230Z,1.60
2022-10-08T02:41:05.479Z,1.90
2022-10-08T02:42:05.721Z,1.70
2022-10-08T02:43:05.980Z,1.80
2022-10-08T02:44:06.210Z,1.60
2022-10-08T02:45:06.453Z,2.20
2022-10-08T02:46:06.741Z,2.30
2022-10-08T02:47:06.972Z,1.80
2022-10-08T02:48:07.212Z,1.90
2022-10-08T02:49:07.456Z,1.90
2022-10-08T02:50:07.692Z,2.10
2022-10-08T02:51:07.933Z,1.70
2022-10-08T02:52:08.176Z,1.90
2022-10-08T02:53:08.418Z,1.70
2022-10-08T02:54:08.660Z,1.90
2022-10-08T02:55:08.896Z,1.80
2022-10-08T02:56:09.135Z,1.70
2022-10-08T02:57:09.793Z,2.20
2022-10-08T02:58:09.625Z,1.70
2022-10-08T02:59:09.890Z,1.60
2022-10-08T03:00:10.136Z,1.90
2022-10-08T03:01:10.436Z,1.80
2022-10-08T03:02:10.727Z,1.50
2022-10-08T03:03:10.949Z,1.80
2022-10-08T03:04:11.187Z,1.90
2022-10-08T03:05:11.442Z,1.70
2022-10-08T03:06:11.682Z,1.60
2022-10-08T03:07:12.869Z,1.90
2022-10-08T03:08:12.170Z,2.00
2022-10-08T03:09:12.409Z,1.90
2022-10-08T03:10:12.649Z,1.70
2022-10-08T03:11:12.903Z,1.80
2022-10-08T03:12:13.150Z,1.80
2022-10-08T03:13:13.399Z,1.90
2022-10-08T03:14:13.641Z,1.80
2022-10-08T03:15:13.891Z,1.70
2022-10-08T03:16:14.193Z,2.00
2022-10-08T03:17:14.444Z,1.70
2022-10-08T03:18:14.679Z,1.80
2022-10-08T03:19:14.983Z,1.80
2022-10-08T03:20:15.224Z,1.50
2022-10-08T03:21:15.473Z,1.60
2022-10-08T03:22:15.745Z,1.70
2022-10-08T03:23:16.004Z,1.90
2022-10-08T03:24:16.243Z,1.80
2022-10-08T03:25:16.484Z,1.50
2022-10-08T03:26:16.793Z,1.70
2022-10-08T03:27:17.015Z,1.80
2022-10-08T03:28:17.286Z,1.80
2022-10-08T03:29:17.526Z,1.70
2022-10-08T03:30:17.797Z,1.70
2022-10-08T03:31:18.099Z,1.90
2022-10-08T03:32:18.366Z,1.50
2022-10-08T03:33:18.614Z,1.80
2022-10-08T03:34:18.858Z,1.50
2022-10-08T03:35:19.198Z,1.70
2022-10-08T03:36:19.399Z,2.00
2022-10-08T03:37:19.646Z,1.80
2022-10-08T03:38:19.907Z,1.50
2022-10-08T03:39:20.168Z,1.80
2022-10-08T03:40:20.409Z,1.80
2022-10-08T03:41:20.668Z,1.80
2022-10-08T03:42:20.913Z,1.80
2022-10-08T03:43:21.163Z,1.80
2022-10-08T03:44:21.391Z,1.90
2022-10-08T03:45:21.638Z,1.70
2022-10-08T03:46:22.014Z,1.60
2022-10-08T03:47:22.272Z,1.70
2022-10-08T03:48:22.522Z,1.50
2022-10-08T03:49:22.774Z,1.90
2022-10-08T03:50:23.021Z,1.70
2022-10-08T03:51:23.253Z,1.60
2022-10-08T03:52:23.494Z,1.70
2022-10-08T03:53:23.741Z,1.50
2022-10-08T03:54:23.976Z,1.50
2022-10-08T03:55:24.222Z,2.10
2022-10-08T03:56:24.463Z,1.60
2022-10-08T03:57:24.726Z,1.60
2022-10-08T03:58:24.970Z,1.60
2022-10-08T03:59:25.214Z,1.40
2022-10-08T04:00:25.455Z,1.70
2022-10-08T04:01:25.744Z,1.60
2022-10-08T04:02:26.022Z,1.60
2022-10-08T04:03:26.252Z,1.50
2022-10-08T04:04:26.488Z,1.70
2022-10-08T04:05:26.737Z,1.90
2022-10-08T04:06:26.988Z,1.60
2022-10-08T04:07:27.237Z,1.70
2022-10-08T04:08:27.479Z,1.70
2022-10-08T04:09:27.726Z,1.60
2022-10-08T04:10:27.976Z,2.00
2022-10-08T04:11:28.220Z,1.50
2022-10-08T04:12:28.475Z,1.60
2022-10-08T04:13:28.708Z,1.40
2022-10-08T04:14:28.939Z,1.50
2022-10-08T04:15:29.248Z,1.50
2022-10-08T04:16:29.460Z,1.40
2022-10-08T04:17:29.710Z,1.60
2022-10-08T04:18:29.991Z,1.60
2022-10-08T04:19:30.248Z,1.60
2022-10-08T04:20:30.486Z,1.70
2022-10-08T04:21:30.738Z,1.80
2022-10-08T04:22:30.992Z,1.90
2022-10-08T04:23:31.243Z,1.80
2022-10-08T04:24:31.480Z,1.70
2022-10-08T04:25:31.724Z,1.40
2022-10-08T04:26:31.984Z,1.40
2022-10-08T04:27:32.235Z,1.70
2022-10-08T04:28:37.578Z,1.50
2022-10-08T04:29:33.713Z,1.80
2022-10-08T04:30:33.024Z,1.40
2022-10-08T04:31:33.409Z,1.70
2022-10-08T04:32:34.475Z,1.50
2022-10-08T04:33:33.776Z,1.70
2022-10-08T04:34:34.091Z,1.60
2022-10-08T04:35:34.317Z,1.70
2022-10-08T04:36:34.561Z,1.60
2022-10-08T04:37:34.806Z,1.60
2022-10-08T04:38:35.057Z,1.50
2022-10-08T04:39:35.306Z,1.50
2022-10-08T04:40:35.551Z,1.60
2022-10-08T04:41:35.791Z,1.90
2022-10-08T04:42:36.047Z,1.60
2022-10-08T04:43:36.299Z,1.80
2022-10-08T04:44:36.550Z,1.90
2022-10-08T04:45:36.797Z,1.60
2022-10-08T04:46:37.091Z,1.50
2022-10-08T04:47:37.350Z,1.40
2022-10-08T04:48:37.591Z,1.50
2022-10-08T04:49:37.900Z,1.40
2022-10-08T04:50:38.131Z,1.60
2022-10-08T04:51:38.381Z,1.50
2022-10-08T04:52:38.625Z,1.70
2022-10-08T04:53:38.873Z,1.60
2022-10-08T04:54:39.112Z,1.50
2022-10-08T04:55:39.362Z,1.60
2022-10-08T04:56:39.623Z,1.60
2022-10-08T04:57:39.872Z,1.30
2022-10-08T04:58:40.113Z,1.40
2022-10-08T04:59:59.472Z,1.40
2022-10-08T05:00:41.593Z,1.70
2022-10-08T05:01:40.966Z,1.70
2022-10-08T05:02:41.237Z,1.60
2022-10-08T05:03:41.475Z,1.60
2022-10-08T05:04:41.736Z,1.70
2022-10-08T05:05:41.977Z,1.70
2022-10-08T05:06:42.226Z,1.50
2022-10-08T05:07:42.477Z,1.50
2022-10-08T05:08:42.736Z,1.50
2022-10-08T05:09:43.009Z,1.50
2022-10-08T05:10:43.269Z,1.50
2022-10-08T05:11:43.510Z,1.40
2022-10-08T05:12:43.983Z,1.70
2022-10-08T05:13:44.097Z,1.90
2022-10-08T05:14:44.339Z,1.50
2022-10-08T05:15:44.624Z,1.60
2022-10-08T05:16:44.870Z,1.50
2022-10-08T05:17:45.119Z,1.50
2022-10-08T05:18:45.391Z,1.50
2022-10-08T05:19:45.652Z,1.70
2022-10-08T05:20:45.894Z,1.60
2022-10-08T05:21:46.151Z,1.40
2022-10-08T05:22:46.673Z,1.70
2022-10-08T05:23:46.740Z,1.60
2022-10-08T05:24:46.992Z,1.40
2022-10-08T05:25:47.264Z,1.60
2022-10-08T05:26:58.637Z,1.40
2022-10-08T05:27:48.895Z,1.60
2022-10-08T05:28:48.188Z,1.60
2022-10-08T05:29:48.440Z,1.30
2022-10-08T05:30:48.741Z,1.40
2022-10-08T05:31:49.933Z,1.40
2022-10-08T05:32:49.646Z,1.40
2022-10-08T05:33:49.627Z,1.40
2022-10-08T05:34:49.872Z,1.60
2022-10-08T05:35:50.114Z,1.50
2022-10-08T05:36:50.364Z,1.30
2022-10-08T05:37:50.619Z,1.50
2022-10-08T05:38:50.866Z,1.60
2022-10-08T05:39:51.106Z,1.80
2022-10-08T05:40:51.365Z,2.30
2022-10-08T05:41:51.626Z,1.60
2022-10-08T05:42:51.897Z,1.50
2022-10-08T05:43:52.156Z,2.10
2022-10-08T05:44:52.426Z,1.90
2022-10-08T05:45:52.691Z,1.70
2022-10-08T05:46:53.025Z,1.90
2022-10-08T05:47:53.209Z,1.80
2022-10-08T05:48:53.477Z,1.90
2022-10-08T05:49:53.728Z,1.70
2022-10-08T05:50:53.998Z,1.70
2022-10-08T05:51:54.259Z,1.90
2022-10-08T05:52:54.560Z,1.60
2022-10-08T05:53:54.831Z,1.70
2022-10-08T05:54:55.091Z,1.90
2022-10-08T05:55:55.361Z,1.80
2022-10-08T05:56:55.622Z,2.10
2022-10-08T05:57:55.939Z,1.90
2022-10-08T05:58:56.192Z,1.40
2022-10-08T05:59:56.452Z,1.40
2022-10-08T06:00:56.723Z,1.60
2022-10-08T06:01:56.983Z,1.50
2022-10-08T06:02:57.347Z,1.50
2022-10-08T06:03:57.612Z,1.70
2022-10-08T06:04:57.910Z,1.70
2022-10-08T06:05:58.193Z,1.30
2022-10-08T06:06:58.505Z,1.80
2022-10-08T06:07:58.845Z,1.90
2022-10-08T06:08:59.097Z,1.90
2022-10-08T06:09:59.397Z,1.60
2022-10-08T06:10:59.655Z,1.50
2022-10-08T06:11:59.917Z,1.50
2022-10-08T06:13:00.191Z,1.50
2022-10-08T06:14:00.436Z,1.80
2022-10-08T06:15:00.697Z,1.70
2022-10-08T06:16:00.992Z,1.40
2022-10-08T06:17:01.266Z,1.80
2022-10-08T06:18:01.530Z,1.60
2022-10-08T06:19:01.788Z,1.40
2022-10-08T06:20:02.048Z,1.40
2022-10-08T06:21:02.308Z,1.70
2022-10-08T06:22:02.559Z,1.80
2022-10-08T06:23:02.826Z,1.50
2022-10-08T06:24:03.077Z,1.80
2022-10-08T06:25:03.338Z,1.50
2022-10-08T06:26:03.599Z,1.50
2022-10-08T06:27:03.861Z,1.30
2022-10-08T06:28:04.154Z,1.80
2022-10-08T06:29:04.402Z,1.70
2022-10-08T06:30:04.659Z,1.30
2022-10-08T06:31:04.951Z,1.30
2022-10-08T06:32:05.192Z,1.50
2022-10-08T06:33:05.462Z,1.50
2022-10-08T06:34:05.723Z,1.50
2022-10-08T06:35:05.980Z,1.40
2022-10-08T06:36:06.232Z,1.90
2022-10-08T06:37:06.484Z,1.50
2022-10-08T06:38:06.752Z,1.50
2022-10-08T06:39:07.003Z,1.40
2022-10-08T06:40:07.263Z,1.40
2022-10-08T06:41:07.514Z,1.10
2022-10-08T06:42:07.766Z,1.40
2022-10-08T06:43:08.031Z,1.70
2022-10-08T06:44:08.295Z,1.50
2022-10-08T06:45:08.549Z,1.70
2022-10-08T06:46:08.796Z,1.40
2022-10-08T06:47:09.100Z,1.50
2022-10-08T06:48:09.457Z,1.50
2022-10-08T06:49:09.667Z,1.60
2022-10-08T06:50:09.927Z,1.30
2022-10-08T06:51:10.168Z,1.40
2022-10-08T06:52:10.408Z,1.50
2022-10-08T06:53:10.668Z,1.50
2022-10-08T06:54:10.921Z,1.30
2022-10-08T06:55:11.178Z,1.50
2022-10-08T06:56:11.439Z,1.30
2022-10-08T06:57:11.691Z,1.30
2022-10-08T06:58:11.949Z,1.50
2022-10-08T06:59:12.199Z,1.70
2022-10-08T07:00:12.461Z,1.30
2022-10-08T07:01:12.855Z,1.40
2022-10-08T07:02:13.071Z,1.40
2022-10-08T07:03:13.341Z,1.50
2022-10-08T07:04:13.601Z,1.60
2022-10-08T07:05:13.862Z,1.30
2022-10-08T07:06:14.120Z,1.60
2022-10-08T07:07:14.462Z,1.40
2022-10-08T07:08:14.673Z,1.40
2022-10-08T07:09:14.934Z,1.50
2022-10-08T07:10:18.358Z,1.40
2022-10-08T07:11:15.433Z,1.60
2022-10-08T07:12:15.684Z,1.40
2022-10-08T07:13:15.954Z,1.60
2022-10-08T07:14:16.205Z,1.40
2022-10-08T07:15:16.465Z,1.70
2022-10-08T07:16:20.568Z,1.60
2022-10-08T07:17:17.046Z,1.40
2022-10-08T07:18:17.296Z,1.40
2022-10-08T07:19:17.555Z,1.40
2022-10-08T07:20:17.810Z,1.30
2022-10-08T07:21:18.065Z,1.60
2022-10-08T07:22:18.316Z,1.50
2022-10-08T07:23:18.569Z,1.50
2022-10-08T07:24:18.808Z,1.40
2022-10-08T07:25:19.101Z,1.80
2022-10-08T07:26:19.338Z,1.30
2022-10-08T07:27:19.579Z,1.40
2022-10-08T07:28:19.886Z,1.60
2022-10-08T07:29:20.131Z,1.30
2022-10-08T07:30:20.369Z,1.40
2022-10-08T07:31:20.637Z,1.50
2022-10-08T07:32:20.850Z,1.40
2022-10-08T07:33:21.102Z,1.60
2022-10-08T07:34:21.342Z,1.30
2022-10-08T07:35:21.581Z,1.40
2022-10-08T07:36:21.831Z,1.30
2022-10-08T07:37:22.091Z,1.50
2022-10-08T07:38:22.342Z,1.50
2022-10-08T07:39:22.582Z,1.50
2022-10-08T07:40:22.823Z,1.40
2022-10-08T07:41:23.091Z,1.60
2022-10-08T07:42:23.334Z,1.40
2022-10-08T07:43:23.583Z,1.40
2022-10-08T07:44:23.821Z,1.50
2022-10-08T07:45:24.140Z,1.70
2022-10-08T07:46:24.365Z,1.50
2022-10-08T07:47:24.606Z,1.20
2022-10-08T07:48:24.845Z,1.40
2022-10-08T07:49:25.095Z,2.00
2022-10-08T07:50:25.378Z,1.60
2022-10-08T07:51:25.644Z,1.30
2022-10-08T07:52:25.898Z,1.30
2022-10-08T07:53:26.153Z,1.40
2022-10-08T07:54:26.408Z,1.30
2022-10-08T07:55:26.657Z,1.40
2022-10-08T07:56:26.916Z,1.50
2022-10-08T07:57:27.167Z,1.50
2022-10-08T07:58:27.418Z,1.30
2022-10-08T07:59:27.678Z,1.50
2022-10-08T08:00:27.991Z,1.40
2022-10-08T08:01:28.360Z,1.50
2022-10-08T08:02:28.589Z,1.40
2022-10-08T08:03:28.839Z,1.40
2022-10-08T08:04:29.150Z,1.20
2022-10-08T08:05:29.402Z,1.40
2022-10-08T08:06:29.659Z,1.40
2022-10-08T08:07:29.961Z,1.20
2022-10-08T08:08:30.221Z,1.30
2022-10-08T08:09:30.480Z,1.20
2022-10-08T08:10:30.730Z,1.30
2022-10-08T08:11:30.982Z,1.50
2022-10-08T08:12:31.243Z,1.40
2022-10-08T08:13:36.532Z,1.50
2022-10-08T08:14:32.759Z,1.30
2022-10-08T08:15:32.083Z,1.20
2022-10-08T08:16:32.381Z,1.40
2022-10-08T08:17:32.644Z,1.40
2022-10-08T08:18:32.905Z,1.70
2022-10-08T08:19:33.155Z,1.40
2022-10-08T08:20:33.415Z,1.10
2022-10-08T08:21:33.694Z,1.60
2022-10-08T08:22:33.966Z,1.50
2022-10-08T08:23:34.233Z,1.60
2022-10-08T08:24:34.488Z,1.10
2022-10-08T08:25:34.737Z,1.40
2022-10-08T08:26:34.996Z,1.40
2022-10-08T08:27:35.247Z,1.50
2022-10-08T08:28:35.609Z,1.30
2022-10-08T08:29:35.828Z,1.50
2022-10-08T08:30:36.079Z,1.10
2022-10-08T08:31:36.364Z,1.30
2022-10-08T08:32:36.648Z,1.40
2022-10-08T08:33:37.389Z,1.20
2022-10-08T08:34:37.189Z,1.40
2022-10-08T08:35:37.449Z,1.50
2022-10-08T08:36:37.717Z,1.20
2022-10-08T08:37:37.970Z,1.40
2022-10-08T08:38:38.234Z,1.50
2022-10-08T08:39:38.481Z,1.50
2022-10-08T08:40:38.733Z,1.30
2022-10-08T08:41:38.991Z,1.50
2022-10-08T08:42:39.242Z,1.50
2022-10-08T08:43:39.502Z,1.30
2022-10-08T08:44:39.752Z,1.70
2022-10-08T08:45:46.961Z,1.40
2022-10-08T08:46:41.309Z,1.50
2022-10-08T08:47:40.503Z,1.30
2022-10-08T08:48:40.755Z,1.20
2022-10-08T08:49:41.024Z,1.30
2022-10-08T08:50:44.423Z,1.30
2022-10-08T08:51:42.532Z,1.30
2022-10-08T08:52:41.868Z,1.50
2022-10-08T08:53:42.135Z,1.30
2022-10-08T08:54:42.397Z,1.30
2022-10-08T08:55:42.654Z,1.30
2022-10-08T08:56:42.906Z,1.30
2022-10-08T08:57:43.165Z,1.20
2022-10-08T08:58:43.416Z,1.30
2022-10-08T08:59:43.669Z,1.30
2022-10-08T09:00:44.061Z,1.30
2022-10-08T09:01:44.226Z,1.20
2022-10-08T09:02:44.814Z,1.40
2022-10-08T09:03:44.748Z,1.30
2022-10-08T09:04:45.460Z,1.60
2022-10-08T09:05:45.339Z,1.20
2022-10-08T09:06:45.583Z,1.30
2022-10-08T09:07:45.829Z,1.10
2022-10-08T09:08:46.091Z,1.30
2022-10-08T09:09:46.351Z,1.20
2022-10-08T09:10:46.611Z,1.30
2022-10-08T09:11:46.883Z,1.50
2022-10-08T09:12:47.288Z,1.20
2022-10-08T09:13:47.491Z,1.20
2022-10-08T09:14:47.740Z,1.30
2022-10-08T09:15:47.992Z,1.20
2022-10-08T09:16:48.290Z,1.40
2022-10-08T09:17:48.564Z,1.70
2022-10-08T09:18:48.822Z,1.30
2022-10-08T09:19:49.074Z,1.20
2022-10-08T09:20:49.324Z,1.10
2022-10-08T09:21:49.584Z,1.10
2022-10-08T09:22:50.106Z,1.50
2022-10-08T09:23:50.074Z,1.30
2022-10-08T09:24:50.326Z,1.60
2022-10-08T09:25:50.576Z,1.40
2022-10-08T09:26:50.834Z,1.30
2022-10-08T09:27:51.095Z,1.30
2022-10-08T09:28:51.357Z,1.30
2022-10-08T09:29:51.617Z,1.20
2022-10-08T09:30:51.912Z,1.20
2022-10-08T09:31:52.197Z,1.20
2022-10-08T09:32:52.448Z,1.50
2022-10-08T09:33:52.719Z,1.40
2022-10-08T09:34:52.969Z,1.10
2022-10-08T09:35:53.230Z,1.20
2022-10-08T09:36:53.478Z,1.20
2022-10-08T09:37:53.739Z,1.00
2022-10-08T09:38:54.000Z,1.10
2022-10-08T09:39:54.316Z,1.50
2022-10-08T09:40:54.570Z,1.30
2022-10-08T09:41:54.821Z,1.40
2022-10-08T09:42:55.081Z,1.10
2022-10-08T09:43:55.361Z,1.30
2022-10-08T09:44:55.614Z,1.20
2022-10-08T09:45:55.909Z,1.30
2022-10-08T09:46:56.153Z,1.20
2022-10-08T09:47:56.410Z,1.50
2022-10-08T09:48:56.672Z,1.40
2022-10-08T09:49:56.923Z,1.30
2022-10-08T09:50:57.176Z,1.20
2022-10-08T09:51:57.432Z,1.30
2022-10-08T09:52:57.685Z,1.20
2022-10-08T09:53:57.944Z,1.20
2022-10-08T09:54:58.195Z,1.20
2022-10-08T09:55:58.456Z,1.40
2022-10-08T09:56:58.705Z,1.10
2022-10-08T09:57:58.964Z,1.40
2022-10-08T09:58:59.216Z,1.10
2022-10-08T09:59:59.476Z,1.20
2022-10-08T10:00:59.768Z,1.30
2022-10-08T10:02:00.045Z,1.50
2022-10-08T10:03:00.298Z,1.40
2022-10-08T10:04:00.610Z,1.20
2022-10-08T10:05:00.857Z,1.20
2022-10-08T10:06:01.117Z,1.20
2022-10-08T10:07:01.368Z,1.40
2022-10-08T10:08:01.626Z,1.50
2022-10-08T10:09:01.879Z,1.10
2022-10-08T10:10:02.139Z,1.20
2022-10-08T10:11:02.390Z,1.30
2022-10-08T10:12:02.702Z,1.30
2022-10-08T10:13:02.969Z,1.50
2022-10-08T10:14:03.232Z,1.30
2022-10-08T10:15:03.480Z,1.20
2022-10-08T10:16:03.739Z,1.40
2022-10-08T10:17:04.097Z,1.40
2022-10-08T10:18:04.337Z,1.30
2022-10-08T10:19:04.813Z,1.20
2022-10-08T10:20:04.911Z,1.20
2022-10-08T10:21:05.162Z,1.30
2022-10-08T10:22:05.413Z,1.40
2022-10-08T10:23:05.671Z,1.20
2022-10-08T10:24:05.934Z,1.30
2022-10-08T10:25:06.191Z,1.20
2022-10-08T10:26:06.988Z,1.30
2022-10-08T10:27:06.694Z,1.40
2022-10-08T10:28:06.982Z,1.30
2022-10-08T10:29:07.255Z,1.30
2022-10-08T10:30:07.515Z,1.20
2022-10-08T10:31:07.814Z,1.40
2022-10-08T10:32:08.087Z,1.30
2022-10-08T10:33:08.344Z,1.30
2022-10-08T10:34:08.597Z,1.40
2022-10-08T10:35:08.857Z,1.40
2022-10-08T10:36:09.114Z,1.40
2022-10-08T10:37:09.366Z,1.30
2022-10-08T10:38:09.626Z,1.50
2022-10-08T10:39:09.880Z,1.30
2022-10-08T10:40:10.138Z,1.40
2022-10-08T10:41:10.389Z,1.30
2022-10-08T10:42:10.651Z,1.30
2022-10-08T10:43:10.900Z,1.00
2022-10-08T10:44:11.159Z,1.20
2022-10-08T10:45:11.410Z,1.40
2022-10-08T10:46:11.801Z,1.30
2022-10-08T10:47:12.000Z,1.10
2022-10-08T10:48:12.261Z,1.10
2022-10-08T10:49:12.511Z,1.50
2022-10-08T10:50:12.771Z,1.10
2022-10-08T10:51:13.037Z,1.50
2022-10-08T10:52:13.283Z,1.30
2022-10-08T10:53:13.540Z,1.40
2022-10-08T10:54:13.795Z,1.10
2022-10-08T10:55:14.045Z,1.20
2022-10-08T10:56:14.304Z,1.50
2022-10-08T10:57:14.555Z,1.40
2022-10-08T10:58:14.812Z,1.10
2022-10-08T10:59:15.065Z,1.30
2022-10-08T11:00:15.326Z,1.30
2022-10-08T11:01:15.615Z,1.30
2022-10-08T11:02:15.919Z,1.20
2022-10-08T11:03:16.170Z,1.20
2022-10-08T11:04:16.425Z,1.30
2022-10-08T11:05:16.676Z,1.40
2022-10-08T11:06:16.939Z,1.70
2022-10-08T11:07:17.197Z,1.20
2022-10-08T11:08:17.447Z,1.20
2022-10-08T11:09:17.707Z,1.40
2022-10-08T11:10:17.957Z,1.30
2022-10-08T11:11:18.220Z,1.50
2022-10-08T11:12:18.469Z,1.20
2022-10-08T11:13:18.719Z,1.30
2022-10-08T11:14:19.000Z,1.10
2022-10-08T11:15:19.529Z,1.40
2022-10-08T11:16:19.655Z,1.40
2022-10-08T11:17:22.051Z,1.40
2022-10-08T11:18:20.150Z,1.40
2022-10-08T11:19:20.410Z,1.10
2022-10-08T11:20:20.686Z,1.10
2022-10-08T11:21:20.920Z,1.30
2022-10-08T11:22:21.171Z,1.50
2022-10-08T11:23:21.429Z,1.10
2022-10-08T11:24:21.691Z,1.30
2022-10-08T11:25:21.954Z,1.20
2022-10-08T11:26:23.310Z,1.40
2022-10-08T11:27:22.473Z,1.10
2022-10-08T11:28:22.775Z,1.30
2022-10-08T11:29:23.013Z,1.30
2022-10-08T11:30:23.274Z,1.30
2022-10-08T11:31:23.608Z,1.20
2022-10-08T11:32:23.834Z,1.20
2022-10-08T11:33:24.094Z,1.10
2022-10-08T11:34:24.348Z,1.30
2022-10-08T11:35:24.604Z,1.10
2022-10-08T11:36:27.186Z,1.20
2022-10-08T11:37:26.097Z,1.10
2022-10-08T11:38:25.418Z,1.20
2022-10-08T11:39:25.666Z,1.30
2022-10-08T11:40:25.927Z,1.20
2022-10-08T11:41:26.184Z,1.20
2022-10-08T11:42:26.437Z,1.00
2022-10-08T11:43:26.688Z,1.50
2022-10-08T11:44:26.947Z,1.20
2022-10-08T11:45:27.198Z,1.30
2022-10-08T11:46:27.527Z,1.10
2022-10-08T11:47:27.769Z,0.90
2022-10-08T11:48:28.030Z,1.20
2022-10-08T11:49:28.280Z,1.30
2022-10-08T11:50:28.541Z,1.50
2022-10-08T11:51:28.790Z,1.20
2022-10-08T11:52:29.049Z,1.20
2022-10-08T11:53:29.301Z,1.10
2022-10-08T11:54:29.561Z,1.30
2022-10-08T11:55:29.811Z,1.30
2022-10-08T11:56:30.072Z,1.30
2022-10-08T11:57:48.951Z,1.40
2022-10-08T11:58:31.567Z,1.30
2022-10-08T11:59:30.881Z,1.20
2022-10-08T12:00:31.135Z,1.30
2022-10-08T12:01:31.406Z,1.20
2022-10-08T12:02:31.788Z,1.40
2022-10-08T12:03:32.137Z,1.10
2022-10-08T12:04:32.294Z,1.40
2022-10-08T12:05:32.545Z,1.20
2022-10-08T12:06:32.804Z,1.30
2022-10-08T12:07:33.057Z,1.10
2022-10-08T12:08:33.315Z,1.20
2022-10-08T12:09:33.569Z,1.30
2022-10-08T12:10:33.824Z,1.10
2022-10-08T12:11:34.078Z,1.50
2022-10-08T12:12:34.327Z,1.20
2022-10-08T12:13:34.697Z,1.40
2022-10-08T12:14:34.819Z,1.20
2022-10-08T12:15:35.068Z,1.20
2022-10-08T12:16:35.326Z,1.10
2022-10-08T12:17:35.579Z,1.30
2022-10-08T12:18:35.836Z,1.20
2022-10-08T12:19:36.199Z,1.30
2022-10-08T12:20:36.398Z,1.10
2022-10-08T12:21:36.651Z,1.20
2022-10-08T12:22:36.900Z,1.10
2022-10-08T12:23:37.158Z,1.10
2022-10-08T12:24:37.442Z,1.10
2022-10-08T12:25:37.681Z,1.40
2022-10-08T12:26:37.941Z,1.10
2022-10-08T12:27:38.198Z,1.20
2022-10-08T12:28:38.472Z,1.10
2022-10-08T12:29:38.714Z,1.10
2022-10-08T12:30:38.972Z,1.30
2022-10-08T12:31:39.332Z,1.50
2022-10-08T12:32:39.461Z,1.20
2022-10-08T12:33:39.712Z,1.10
2022-10-08T12:34:39.965Z,1.40
2022-10-08T12:35:40.224Z,1.30
2022-10-08T12:36:40.486Z,1.20
2022-10-08T12:37:40.735Z,1.30
2022-10-08T12:38:40.985Z,1.20
2022-10-08T12:39:41.245Z,1.00
2022-10-08T12:40:42.466Z,1.20
2022-10-08T12:41:41.777Z,1.00
2022-10-08T12:42:42.043Z,1.10
2022-10-08T12:43:42.296Z,1.30
2022-10-08T12:44:42.558Z,1.30
2022-10-08T12:45:42.808Z,1.20
2022-10-08T12:46:45.868Z,1.10
2022-10-08T12:47:44.497Z,1.70
2022-10-08T12:48:43.576Z,1.30
2022-10-08T12:49:43.828Z,1.30
2022-10-08T12:50:44.109Z,1.20
2022-10-08T12:51:44.372Z,1.50
2022-10-08T12:52:44.619Z,1.10
2022-10-08T12:53:44.869Z,1.00
2022-10-08T12:54:45.130Z,1.40
2022-10-08T12:55:45.382Z,1.00
2022-10-08T12:56:45.641Z,1.10
2022-10-08T12:57:46.144Z,1.30
2022-10-08T12:58:46.175Z,1.30
2022-10-08T12:59:46.452Z,1.10
2022-10-08T13:00:46.796Z,1.30
2022-10-08T13:01:47.060Z,1.30
2022-10-08T13:02:47.342Z,1.10
2022-10-08T13:03:47.603Z,1.20
2022-10-08T13:04:47.863Z,1.10
2022-10-08T13:05:48.124Z,1.30
2022-10-08T13:06:48.382Z,1.30
2022-10-08T13:07:48.956Z,1.00
2022-10-08T13:08:48.935Z,1.10
2022-10-08T13:09:49.194Z,1.10
2022-10-08T13:10:49.458Z,1.20
2022-10-08T13:11:54.829Z,0.90
2022-10-08T13:12:50.946Z,1.10
2022-10-08T13:13:50.265Z,1.30
2022-10-08T13:14:50.527Z,1.00
2022-10-08T13:15:50.810Z,1.40
2022-10-08T13:16:51.087Z,1.20
2022-10-08T13:17:51.347Z,1.30
2022-10-08T13:18:51.607Z,1.20
2022-10-08T13:19:51.869Z,1.20
2022-10-08T13:20:52.128Z,1.20
2022-10-08T13:21:52.379Z,1.00